Time;durP1;ratioP1;P1;durP2;ratioP2;P2;SDS_P1;SDS_P2;PMS_P1;PMS_P2;Temp;Humidity;BMP_temperature;BMP_pressure;BME280_temperature;BME280_humidity;BME280_pressure;Samples;Min_cycle;Max_cycle;Signal;HPM_P1;HPM_P2
2023/06/22 00:02:17;;;;;;;0.47;0.47;;;;;;;18.54;100.00;100729.63;4974587;28;20189;-75
2023/06/22 00:04:43;;;;;;;0.40;0.40;;;;;;;18.57;100.00;100739.16;4974673;28;20196;-76
2023/06/22 00:07:09;;;;;;;0.37;0.37;;;;;;;18.56;100.00;100732.00;4973707;28;20185;-76
2023/06/22 00:09:34;;;;;;;0.30;0.20;;;;;;;18.55;100.00;100742.28;4985770;28;20714;-76
2023/06/22 00:11:59;;;;;;;0.00;0.00;;;;;;;18.45;100.00;100740.03;4974448;28;20205;-76
2023/06/22 00:14:25;;;;;;;0.00;0.00;;;;;;;18.38;100.00;100748.97;4973262;28;20565;-76
2023/06/22 00:16:58;;;;;;;0.20;0.20;;;;;;;18.27;100.00;100742.38;4974324;28;20244;-76
2023/06/22 00:19:24;;;;;;;0.63;0.63;;;;;;;18.23;100.00;100754.50;4974075;28;20272;-76
2023/06/22 00:21:53;;;;;;;0.50;0.50;;;;;;;18.26;100.00;100753.78;4974199;28;20278;-76
2023/06/22 00:24:22;;;;;;;0.23;0.23;;;;;;;18.27;100.00;100758.97;4974325;28;20673;-76
2023/06/22 00:26:48;;;;;;;0.00;0.00;;;;;;;18.39;100.00;100772.72;4974217;28;20269;-76
2023/06/22 00:29:14;;;;;;;0.00;0.00;;;;;;;18.51;100.00;100757.97;4972647;28;20198;-76
2023/06/22 00:31:39;;;;;;;0.00;0.00;;;;;;;18.69;100.00;100758.47;4974048;28;20210;-77
2023/06/22 00:34:06;;;;;;;1.23;0.50;;;;;;;18.71;100.00;100748.63;4974562;28;20283;-76
2023/06/22 00:36:32;;;;;;;0.00;0.00;;;;;;;18.70;100.00;100757.31;4974134;28;20186;-76
2023/06/22 00:38:57;;;;;;;0.07;0.07;;;;;;;18.75;100.00;100754.25;4973696;28;20185;-76
2023/06/22 00:41:22;;;;;;;0.60;0.60;;;;;;;18.63;100.00;100744.06;4973954;28;20576;-76
2023/06/22 00:43:48;;;;;;;0.00;0.00;;;;;;;18.67;100.00;100745.00;4974012;28;20257;-76
2023/06/22 00:46:13;;;;;;;0.00;0.00;;;;;;;18.69;100.00;100733.56;4982589;28;20185;-76
2023/06/22 00:48:41;;;;;;;0.00;0.00;;;;;;;18.75;100.00;100734.88;4988688;28;20178;-76
2023/06/22 00:51:07;;;;;;;0.00;0.00;;;;;;;18.62;100.00;100731.38;4973776;28;20202;-76
2023/06/22 00:53:34;;;;;;;0.00;0.00;;;;;;;18.65;100.00;100727.91;4973877;28;20208;-76
2023/06/22 00:56:00;;;;;;;0.03;0.03;;;;;;;18.40;100.00;100726.50;4973714;28;20181;-76
2023/06/22 00:58:26;;;;;;;0.00;0.00;;;;;;;18.26;100.00;100729.69;4973386;28;20581;-76
2023/06/22 01:00:51;;;;;;;0.00;0.00;;;;;;;18.02;100.00;100730.66;4974032;28;20209;-76
2023/06/22 01:03:17;;;;;;;0.00;0.00;;;;;;;18.19;100.00;100718.44;4973563;28;20221;-76
2023/06/22 01:05:46;;;;;;;0.00;0.00;;;;;;;18.41;100.00;100720.59;4973502;28;20666;-76
2023/06/22 01:08:37;;;;;;;0.00;0.00;;;;;;;18.56;100.00;100720.94;4973400;28;20193;-76
2023/06/22 01:11:14;;;;;;;0.00;0.00;;;;;;;18.55;100.00;100716.56;4972462;28;20573;-76
2023/06/22 01:14:06;;;;;;;5.47;5.30;;;;;;;18.21;100.00;100715.31;4973298;28;20181;-76
2023/06/22 01:16:35;;;;;;;0.00;0.00;;;;;;;18.10;100.00;100721.41;4973429;28;20248;-76
2023/06/22 01:19:07;;;;;;;0.00;0.00;;;;;;;18.27;100.00;100711.94;4972835;28;20192;-77
2023/06/22 01:21:33;;;;;;;0.00;0.00;;;;;;;18.43;100.00;100707.19;4973344;28;20243;-76
2023/06/22 01:24:01;;;;;;;0.93;0.93;;;;;;;18.53;100.00;100703.09;4987694;28;20272;-77
2023/06/22 01:26:30;;;;;;;0.00;0.00;;;;;;;18.59;100.00;100709.16;4973342;28;20181;-76
2023/06/22 01:28:58;;;;;;;0.00;0.00;;;;;;;18.60;100.00;100703.25;4972771;28;20201;-77
2023/06/22 01:31:26;;;;;;;0.00;0.00;;;;;;;18.06;100.00;100709.41;4973100;28;20683;-76
2023/06/22 01:33:56;;;;;;;0.20;0.20;;;;;;;17.84;100.00;100724.66;4973160;28;20178;-76
2023/06/22 01:36:24;;;;;;;11.80;1.83;;;;;;;17.87;100.00;100714.84;4973201;28;20256;-76
2023/06/22 01:38:50;;;;;;;0.00;0.00;;;;;;;17.82;100.00;100715.09;4972703;28;20221;-76
2023/06/22 01:41:17;;;;;;;1.40;0.73;;;;;;;17.82;100.00;100723.41;4973038;28;20698;-76
2023/06/22 01:43:43;;;;;;;0.00;0.00;;;;;;;17.91;100.00;100726.78;4973082;28;20186;-76
2023/06/22 01:46:11;;;;;;;0.83;0.20;;;;;;;17.91;100.00;100724.03;4973100;28;20639;-76
2023/06/22 01:48:38;;;;;;;2.13;2.03;;;;;;;17.86;100.00;100715.19;4972752;28;20582;-76
2023/06/22 01:51:03;;;;;;;0.97;0.93;;;;;;;17.69;100.00;100705.25;4972805;28;20233;-76
2023/06/22 01:53:29;;;;;;;0.97;0.73;;;;;;;17.58;100.00;100699.41;4973007;28;20210;-75
2023/06/22 01:55:55;;;;;;;0.10;0.10;;;;;;;17.51;100.00;100705.56;4972951;28;20221;-76
2023/06/22 01:58:25;;;;;;;0.00;0.00;;;;;;;17.52;100.00;100711.88;4971382;28;20210;-76
2023/06/22 02:00:58;;;;;;;0.00;0.00;;;;;;;17.61;100.00;100720.81;4971541;28;20678;-76
2023/06/22 02:03:34;;;;;;;0.23;0.23;;;;;;;17.47;100.00;100715.69;4973396;28;20178;-76
2023/06/22 02:06:05;;;;;;;0.50;0.50;;;;;;;17.41;100.00;100706.03;4972867;28;20188;-75
2023/06/22 02:08:36;;;;;;;0.40;0.40;;;;;;;17.30;100.00;100710.44;4972583;28;20232;-75
2023/06/22 02:11:02;;;;;;;0.77;0.77;;;;;;;17.34;100.00;100713.31;4979967;28;20201;-76
2023/06/22 02:13:28;;;;;;;0.70;0.70;;;;;;;17.28;100.00;100706.44;4972843;28;20180;-76
2023/06/22 02:15:54;;;;;;;1.53;1.43;;;;;;;17.18;100.00;100708.53;4972715;28;20547;-76
2023/06/22 02:18:20;;;;;;;0.00;0.00;;;;;;;17.17;100.00;100712.44;4972419;28;20273;-76
2023/06/22 02:20:45;;;;;;;0.00;0.00;;;;;;;17.17;100.00;100709.66;4972901;28;20552;-76
2023/06/22 02:23:11;;;;;;;0.00;0.00;;;;;;;17.11;100.00;100713.84;4972725;28;20189;-76
2023/06/22 02:25:36;;;;;;;0.00;0.00;;;;;;;17.33;100.00;100719.97;4972717;28;20284;-77
2023/06/22 02:28:02;;;;;;;2.47;1.80;;;;;;;17.39;100.00;100711.13;4972580;28;20548;-77
2023/06/22 02:30:28;;;;;;;1.73;1.63;;;;;;;17.42;100.00;100724.22;4974396;28;20206;-76
2023/06/22 02:32:58;;;;;;;1.03;0.77;;;;;;;17.32;100.00;100713.66;4976240;28;20209;-75
2023/06/22 02:35:31;;;;;;;0.00;0.00;;;;;;;17.43;100.00;100730.53;4976446;28;20185;-77
2023/06/22 02:38:00;;;;;;;0.00;0.00;;;;;;;17.18;100.00;100727.84;4976125;28;20205;-76
2023/06/22 02:40:26;;;;;;;0.03;0.03;;;;;;;17.31;100.00;100733.34;4975966;28;20253;-76
2023/06/22 02:42:51;;;;;;;1.47;1.40;;;;;;;17.17;100.00;100730.97;4976150;28;20178;-76
2023/06/22 02:45:16;;;;;;;1.33;1.23;;;;;;;17.19;100.00;100743.25;4976083;28;20188;-76
2023/06/22 02:47:42;;;;;;;0.87;0.87;;;;;;;17.14;100.00;100746.28;4976119;28;20185;-76
2023/06/22 02:50:08;;;;;;;0.00;0.00;;;;;;;17.08;100.00;100744.13;4983564;28;20185;-76
2023/06/22 02:52:33;;;;;;;0.00;0.00;;;;;;;17.21;100.00;100757.56;4975995;28;20675;-75
2023/06/22 02:54:59;;;;;;;0.30;0.30;;;;;;;17.29;100.00;100761.31;4976193;28;20287;-76
2023/06/22 02:57:24;;;;;;;0.00;0.00;;;;;;;17.18;100.00;100752.69;4975838;28;20893;-76
2023/06/22 02:59:49;;;;;;;1.40;1.33;;;;;;;17.21;100.00;100756.72;4974172;28;20182;-76
2023/06/22 03:02:15;;;;;;;0.73;0.73;;;;;;;17.13;100.00;100755.72;4975795;28;20202;-76
2023/06/22 03:04:40;;;;;;;0.00;0.00;;;;;;;17.30;100.00;100759.34;4975861;28;20188;-76
2023/06/22 03:07:05;;;;;;;0.67;0.67;;;;;;;17.31;100.00;100767.28;4983423;28;20535;-76
2023/06/22 03:09:31;;;;;;;0.00;0.00;;;;;;;17.35;100.00;100764.63;4975456;28;20678;-76
2023/06/22 03:11:56;;;;;;;0.10;0.10;;;;;;;17.45;100.00;100764.16;4975552;28;20247;-76
2023/06/22 03:14:22;;;;;;;1.50;1.40;;;;;;;17.36;100.00;100758.78;4985255;28;20266;-76
2023/06/22 03:16:47;;;;;;;0.00;0.00;;;;;;;17.40;100.00;100765.22;4975428;28;20185;-77
2023/06/22 03:19:13;;;;;;;0.00;0.00;;;;;;;17.21;100.00;100763.06;4975345;28;20561;-76
2023/06/22 03:21:39;;;;;;;0.00;0.00;;;;;;;17.44;100.00;100765.31;4975598;28;20644;-76
2023/06/22 03:24:06;;;;;;;0.00;0.00;;;;;;;17.62;100.00;100760.28;4975527;28;20217;-76
2023/06/22 03:26:31;;;;;;;0.00;0.00;;;;;;;17.66;100.00;100769.50;4974271;28;20178;-76
2023/06/22 03:28:57;;;;;;;0.00;0.00;;;;;;;17.80;100.00;100770.75;4974921;28;20272;-76
2023/06/22 03:31:23;;;;;;;0.00;0.00;;;;;;;17.54;100.00;100770.34;4975590;28;20257;-77
2023/06/22 03:33:50;;;;;;;0.00;0.00;;;;;;;17.71;100.00;100772.84;4975234;28;20186;-76
2023/06/22 03:36:19;;;;;;;0.00;0.00;;;;;;;17.45;100.00;100773.25;4984292;28;20549;-76
2023/06/22 03:38:46;;;;;;;0.00;0.00;;;;;;;17.40;100.00;100765.22;4974698;28;20206;-76
2023/06/22 03:41:11;;;;;;;0.00;0.00;;;;;;;17.56;100.00;100776.31;4975127;28;20625;-76
2023/06/22 03:43:37;;;;;;;0.00;0.00;;;;;;;17.74;100.00;100763.84;4974993;28;20218;-77
2023/06/22 03:46:02;;;;;;;0.00;0.00;;;;;;;17.75;100.00;100768.22;4981960;28;20190;-76
2023/06/22 03:48:27;;;;;;;0.00;0.00;;;;;;;17.91;100.00;100771.03;4974892;28;20209;-76
2023/06/22 03:50:53;;;;;;;0.00;0.00;;;;;;;17.76;100.00;100758.75;4974804;28;20225;-76
2023/06/22 03:53:18;;;;;;;0.00;0.00;;;;;;;17.99;100.00;100755.44;4975002;28;20596;-76
2023/06/22 03:55:51;;;;;;;0.10;0.10;;;;;;;17.67;100.00;100751.78;4975304;28;20190;-76
2023/06/22 03:58:18;;;;;;;0.43;0.43;;;;;;;17.64;100.00;100750.50;4974421;28;20198;-76
2023/06/22 04:00:47;;;;;;;0.03;0.03;;;;;;;17.47;100.00;100759.06;4974719;28;20205;-76
2023/06/22 04:03:13;;;;;;;0.00;0.00;;;;;;;17.55;100.00;100760.91;4973529;28;20279;-76
2023/06/22 04:05:39;;;;;;;0.00;0.00;;;;;;;17.69;100.00;100749.47;4974633;28;20189;-76
2023/06/22 04:08:05;;;;;;;0.00;0.00;;;;;;;17.93;100.00;100740.25;4974489;28;20253;-76
2023/06/22 04:10:30;;;;;;;0.00;0.00;;;;;;;18.03;100.00;100746.06;4973223;28;20213;-76
2023/06/22 04:12:56;;;;;;;0.00;0.00;;;;;;;17.79;100.00;100757.25;4974578;28;20292;-76
2023/06/22 04:15:21;;;;;;;0.00;0.00;;;;;;;17.69;100.00;100755.00;4973379;28;20193;-76
2023/06/22 04:17:47;;;;;;;0.10;0.10;;;;;;;17.67;100.00;100749.81;4974349;28;20216;-75
2023/06/22 04:20:12;;;;;;;0.00;0.00;;;;;;;17.79;100.00;100751.72;4974082;28;20228;-76
2023/06/22 04:22:37;;;;;;;1.33;1.30;;;;;;;17.70;100.00;100759.38;4974337;28;20261;-76
2023/06/22 04:25:03;;;;;;;0.00;0.00;;;;;;;17.72;100.00;100760.63;4974502;28;20179;-76
2023/06/22 04:27:28;;;;;;;0.00;0.00;;;;;;;17.63;100.00;100768.22;4974208;28;20209;-76
2023/06/22 04:29:54;;;;;;;0.00;0.00;;;;;;;17.65;100.00;100768.69;4973827;28;20273;-76
2023/06/22 04:32:19;;;;;;;0.00;0.00;;;;;;;17.87;100.00;100766.56;4974440;28;20626;-76
2023/06/22 04:34:44;;;;;;;0.00;0.00;;;;;;;18.06;100.00;100763.91;4974120;28;20652;-76
2023/06/22 04:37:15;;;;;;;0.00;0.00;;;;;;;18.12;100.00;100768.84;4974116;28;20209;-76
2023/06/22 04:39:41;;;;;;;0.00;0.00;;;;;;;18.26;100.00;100773.97;4973903;28;20289;-76
2023/06/22 04:42:07;;;;;;;0.00;0.00;;;;;;;18.13;100.00;100762.16;4973870;28;20285;-76
2023/06/22 04:44:32;;;;;;;0.00;0.00;;;;;;;18.16;100.00;100765.38;4974069;28;20297;-76
2023/06/22 04:47:03;;;;;;;0.00;0.00;;;;;;;18.23;100.00;100768.34;4973958;28;20627;-77
2023/06/22 04:49:32;;;;;;;0.00;0.00;;;;;;;18.32;100.00;100764.22;4973692;28;20200;-76
2023/06/22 04:52:17;;;;;;;0.00;0.00;;;;;;;18.41;100.00;100756.56;4973688;28;20578;-76
2023/06/22 04:54:50;;;;;;;0.53;0.50;;;;;;;18.14;100.00;100749.13;4973533;28;20515;-76
2023/06/22 04:57:16;;;;;;;0.97;0.97;;;;;;;18.10;100.00;100746.28;4973757;28;20268;-76
2023/06/22 04:59:42;;;;;;;0.00;0.00;;;;;;;18.14;100.00;100749.13;4985638;28;20659;-76
2023/06/22 05:02:08;;;;;;;0.20;0.20;;;;;;;18.29;100.00;100745.56;4973591;28;20284;-77
2023/06/22 05:04:35;;;;;;;0.40;0.40;;;;;;;18.59;100.00;100748.69;4972704;28;20604;-76
2023/06/22 05:07:01;;;;;;;0.10;0.10;;;;;;;18.61;100.00;100751.09;4973476;28;20184;-76
2023/06/22 05:09:27;;;;;;;0.00;0.00;;;;;;;18.61;100.00;100751.09;4973466;28;20276;-76
2023/06/22 05:11:52;;;;;;;0.00;0.00;;;;;;;18.67;100.00;100750.53;4973528;28;20286;-76
2023/06/22 05:14:18;;;;;;;0.00;0.00;;;;;;;18.84;100.00;100741.03;4973538;28;20201;-76
2023/06/22 05:16:45;;;;;;;0.20;0.20;;;;;;;18.84;100.00;100749.34;4973284;28;20177;-77
2023/06/22 05:19:11;;;;;;;0.03;0.03;;;;;;;18.69;100.00;100734.34;4973230;28;20184;-77
2023/06/22 05:21:36;;;;;;;0.20;0.20;;;;;;;18.70;100.00;100737.94;4973664;28;20210;-77
2023/06/22 05:24:02;;;;;;;0.03;0.03;;;;;;;18.60;100.00;100739.22;4973455;28;20182;-76
2023/06/22 05:26:33;;;;;;;0.00;0.00;;;;;;;18.83;100.00;100736.66;4973605;28;20181;-77
2023/06/22 05:29:00;;;;;;;0.03;0.03;;;;;;;18.56;100.00;100732.81;4972930;28;20186;-76
2023/06/22 05:31:26;;;;;;;0.00;0.00;;;;;;;18.68;100.00;100737.47;4973177;28;20205;-76
2023/06/22 05:33:53;;;;;;;0.17;0.17;;;;;;;18.67;100.00;100733.91;4973060;28;20240;-77
2023/06/22 05:36:25;;;;;;;0.50;0.50;;;;;;;18.69;100.00;100733.56;4982414;28;20255;-77
2023/06/22 05:38:52;;;;;;;5.50;4.23;;;;;;;18.63;100.00;100735.78;4987752;28;20213;-76
2023/06/22 05:41:17;;;;;;;0.00;0.00;;;;;;;18.80;100.00;100742.88;4973046;28;20201;-76
2023/06/22 05:43:43;;;;;;;0.00;0.00;;;;;;;18.92;100.00;100740.00;4973123;28;20177;-76
2023/06/22 05:46:08;;;;;;;0.17;0.17;;;;;;;18.93;100.00;100736.09;4980895;28;20217;-76
2023/06/22 05:48:33;;;;;;;0.27;0.27;;;;;;;18.91;100.00;100735.66;4972752;28;20614;-77
2023/06/22 05:50:59;;;;;;;0.00;0.00;;;;;;;19.02;100.00;100735.91;4972967;28;20205;-77
2023/06/22 05:53:24;;;;;;;0.00;0.00;;;;;;;19.15;100.00;100737.38;4973275;28;20185;-77
2023/06/22 05:55:50;;;;;;;0.00;0.00;;;;;;;19.31;100.00;100740.91;4972971;28;20216;-76
2023/06/22 05:58:15;;;;;;;0.07;0.07;;;;;;;19.09;100.00;100743.53;4972667;28;20268;-76
2023/06/22 06:00:41;;;;;;;0.00;0.00;;;;;;;19.03;100.00;100749.38;4972798;28;20209;-76
2023/06/22 06:03:08;;;;;;;0.00;0.00;;;;;;;19.25;100.00;100738.78;4972848;28;20181;-77
2023/06/22 06:05:34;;;;;;;0.00;0.00;;;;;;;19.33;100.00;100744.09;4974529;28;20185;-76
2023/06/22 06:08:00;;;;;;;0.00;0.00;;;;;;;19.35;100.00;100737.38;4976824;28;20181;-77
2023/06/22 06:10:26;;;;;;;0.00;0.00;;;;;;;19.50;100.00;100742.06;4976563;28;20233;-77
2023/06/22 06:12:52;;;;;;;0.00;0.00;;;;;;;19.68;100.00;100745.25;4976759;28;20235;-76
2023/06/22 06:15:18;;;;;;;0.00;0.00;;;;;;;19.59;100.00;100749.03;4976866;28;20186;-76
2023/06/22 06:17:47;;;;;;;0.00;0.00;;;;;;;19.54;100.00;100738.25;4976381;28;20201;-76
2023/06/22 06:20:16;;;;;;;0.10;0.10;;;;;;;19.69;100.00;100730.22;4976344;28;20213;-76
2023/06/22 06:22:42;;;;;;;0.00;0.00;;;;;;;19.72;100.00;100721.16;4976577;28;20191;-76
2023/06/22 06:25:08;;;;;;;0.43;0.43;;;;;;;19.58;100.00;100725.25;4976558;28;20182;-76
2023/06/22 06:27:33;;;;;;;1.17;1.17;;;;;;;19.50;100.00;100728.22;4976495;28;20178;-76
2023/06/22 06:29:59;;;;;;;0.10;0.10;;;;;;;19.67;100.00;100719.47;4974995;28;20193;-76
2023/06/22 06:32:24;;;;;;;0.20;0.20;;;;;;;19.82;100.00;100717.81;4975104;28;20431;-76
2023/06/22 06:34:49;;;;;;;0.10;0.10;;;;;;;20.01;100.00;100725.28;4973802;28;20269;-76
2023/06/22 06:37:15;;;;;;;0.47;0.47;;;;;;;20.09;100.00;100729.78;4975073;28;20205;-76
2023/06/22 06:39:41;;;;;;;0.40;0.40;;;;;;;20.26;100.00;100726.53;4974689;28;20182;-76
2023/06/22 06:42:06;;;;;;;1.60;1.60;;;;;;;20.32;100.00;100727.81;4974899;28;20672;-76
2023/06/22 06:44:31;;;;;;;0.20;0.20;;;;;;;20.15;100.00;100723.56;4975096;28;20177;-76
2023/06/22 06:46:57;;;;;;;0.10;0.10;;;;;;;20.08;100.00;100723.41;4974790;28;20185;-76
2023/06/22 06:49:22;;;;;;;0.37;0.37;;;;;;;20.12;100.00;100721.53;4974563;28;20548;-76
2023/06/22 06:51:47;;;;;;;0.10;0.10;;;;;;;20.22;100.00;100731.19;4974696;28;20252;-76
2023/06/22 06:54:13;;;;;;;2.00;1.90;;;;;;;20.15;100.00;100729.13;4974863;28;20190;-76
2023/06/22 06:56:38;;;;;;;0.27;0.27;;;;;;;20.17;100.00;100724.00;4974748;28;20196;-77
2023/06/22 06:59:03;;;;;;;0.00;0.00;;;;;;;20.47;100.00;100728.88;4974534;28;20241;-76
2023/06/22 07:01:33;;;;;;;2.43;2.23;;;;;;;20.42;100.00;100721.69;4974444;28;20203;-77
2023/06/22 07:03:59;;;;;;;0.00;0.00;;;;;;;20.50;100.00;100720.59;4974640;28;20647;-76
2023/06/22 07:06:28;;;;;;;0.00;0.00;;;;;;;20.58;100.00;100723.50;4974901;28;20196;-76
2023/06/22 07:08:55;;;;;;;0.00;0.00;;;;;;;20.69;100.00;100725.28;4974368;28;20189;-76
2023/06/22 07:11:20;;;;;;;0.10;0.10;;;;;;;20.63;100.00;100725.97;4983922;28;20211;-76
2023/06/22 07:13:45;;;;;;;0.00;0.00;;;;;;;20.92;100.00;100724.41;4974549;28;20190;-76
2023/06/22 07:16:11;;;;;;;0.00;0.00;;;;;;;20.92;98.99;100716.88;4972798;28;20690;-77
2023/06/22 07:18:36;;;;;;;0.20;0.20;;;;;;;21.06;98.14;100722.66;4974284;28;20626;-77
2023/06/22 07:21:02;;;;;;;0.43;0.43;;;;;;;21.01;96.85;100713.84;4974280;28;20242;-77
2023/06/22 07:23:28;;;;;;;0.20;0.10;;;;;;;21.22;97.52;100716.91;4974482;28;20184;-77
2023/06/22 07:25:53;;;;;;;0.00;0.00;;;;;;;21.35;96.89;100709.97;4974391;28;20551;-77
2023/06/22 07:28:19;;;;;;;0.40;0.40;;;;;;;21.38;95.64;100708.41;4936892;28;1090395;-77
2023/06/22 07:30:44;;;;;;;1.77;1.23;;;;;;;21.41;94.43;100706.84;4975150;28;20256;-76
2023/06/22 07:33:10;;;;;;;6.30;3.40;;;;;;;21.09;92.67;100704.41;4975416;28;20218;-76
2023/06/22 07:35:35;;;;;;;0.00;0.00;;;;;;;21.19;93.84;100698.22;4975382;28;20661;-76
2023/06/22 07:38:01;;;;;;;0.40;0.40;;;;;;;20.96;93.02;100700.25;4975081;28;20211;-76
2023/06/22 07:40:26;;;;;;;0.00;0.00;;;;;;;21.06;93.29;100697.63;4975070;28;20202;-76
2023/06/22 07:42:52;;;;;;;0.00;0.00;;;;;;;21.06;93.13;100707.94;4975158;28;20188;-76
2023/06/22 07:45:18;;;;;;;2.90;1.40;;;;;;;21.15;94.30;100711.28;4975018;28;20449;-76
2023/06/22 07:47:43;;;;;;;0.10;0.10;;;;;;;21.33;94.38;100717.09;4975017;28;20179;-77
2023/06/22 07:50:10;;;;;;;0.07;0.07;;;;;;;21.36;93.83;100717.13;4974754;28;20271;-77
2023/06/22 07:52:36;;;;;;;0.10;0.10;;;;;;;21.04;94.13;100721.44;4974895;28;20241;-77
2023/06/22 07:55:02;;;;;;;0.00;0.00;;;;;;;21.08;94.92;100705.59;4975064;28;20241;-77
2023/06/22 07:57:33;;;;;;;0.00;0.00;;;;;;;21.32;95.38;100712.69;4975322;28;20230;-77
2023/06/22 08:00:04;;;;;;;0.00;0.00;;;;;;;21.30;94.42;100709.50;4974475;28;20186;-76
2023/06/22 08:02:29;;;;;;;0.77;0.77;;;;;;;21.45;94.57;100714.06;4973618;28;20180;-77
2023/06/22 08:04:54;;;;;;;0.20;0.20;;;;;;;21.24;92.47;100700.66;4974753;28;20250;-76
2023/06/22 08:07:20;;;;;;;0.10;0.10;;;;;;;21.29;91.91;100702.34;4974859;28;20236;-76
2023/06/22 08:09:48;;;;;;;8.40;1.23;;;;;;;21.23;91.33;100695.47;4974833;28;20253;-76
2023/06/22 08:12:14;;;;;;;0.93;0.93;;;;;;;21.26;91.02;100692.75;4974433;28;20550;-77
2023/06/22 08:14:42;;;;;;;0.73;0.73;;;;;;;21.17;90.83;100697.00;4986386;28;20191;-76
2023/06/22 08:17:07;;;;;;;0.40;0.40;;;;;;;21.16;90.93;100696.19;4974608;28;20707;-76
2023/06/22 08:19:32;;;;;;;0.10;0.10;;;;;;;21.11;91.04;100707.63;4974293;28;20187;-77
2023/06/22 08:21:58;;;;;;;0.63;0.63;;;;;;;21.42;91.58;100711.25;4974285;28;20207;-76
2023/06/22 08:24:23;;;;;;;0.10;0.10;;;;;;;21.37;91.32;100704.03;4974392;28;20183;-77
2023/06/22 08:26:51;;;;;;;0.07;0.07;;;;;;;21.39;90.62;100705.25;4987418;28;20265;-76
2023/06/22 08:29:16;;;;;;;0.00;0.00;;;;;;;21.50;90.55;100701.78;4981935;28;20198;-77
2023/06/22 08:31:42;;;;;;;0.00;0.00;;;;;;;21.74;90.69;100714.41;4974080;28;20268;-77
2023/06/22 08:34:07;;;;;;;0.03;0.03;;;;;;;21.85;90.34;100712.53;4974355;28;20658;-76
2023/06/22 08:36:37;;;;;;;1.40;0.70;;;;;;;21.67;89.56;100712.31;4974188;28;20182;-76
2023/06/22 08:39:03;;;;;;;0.00;0.00;;;;;;;21.85;89.37;100702.22;4973889;28;20198;-76
2023/06/22 08:41:29;;;;;;;0.00;0.00;;;;;;;21.76;89.14;100707.25;4973933;28;20269;-77
2023/06/22 08:43:55;;;;;;;0.00;0.00;;;;;;;21.60;89.86;100713.06;4973957;28;20666;-76
2023/06/22 08:46:23;;;;;;;0.67;0.67;;;;;;;21.55;90.48;100715.34;4974070;28;20211;-77
2023/06/22 08:48:49;;;;;;;0.40;0.40;;;;;;;21.59;90.37;100716.22;4986709;28;20185;-76
2023/06/22 08:51:14;;;;;;;0.33;0.33;;;;;;;21.61;90.50;100708.28;4973849;28;20205;-77
2023/06/22 08:53:39;;;;;;;0.43;0.43;;;;;;;21.63;90.86;100705.91;4974258;28;20213;-77
2023/06/22 08:56:05;;;;;;;0.00;0.00;;;;;;;21.53;90.27;100699.03;4973734;28;20181;-77
2023/06/22 08:58:30;;;;;;;0.00;0.00;;;;;;;21.61;91.32;100702.72;4973473;28;20202;-77
2023/06/22 09:00:55;;;;;;;0.00;0.00;;;;;;;21.56;91.05;100700.28;4973654;28;20205;-76
2023/06/22 09:03:20;;;;;;;0.00;0.00;;;;;;;21.53;90.90;100695.47;4973749;28;20237;-76
2023/06/22 09:05:46;;;;;;;1.00;1.00;;;;;;;21.59;90.95;100689.22;4973596;28;20188;-77
2023/06/22 09:08:11;;;;;;;2.57;2.40;;;;;;;21.54;91.07;100683.16;4973427;28;20202;-76
2023/06/22 09:10:37;;;;;;;0.20;0.20;;;;;;;21.48;89.92;100673.56;4973458;28;20211;-76
2023/06/22 09:13:02;;;;;;;0.00;0.00;;;;;;;21.65;90.80;100668.19;4973573;28;20239;-76
2023/06/22 09:15:27;;;;;;;1.07;1.03;;;;;;;21.71;90.75;100652.00;4973586;28;20278;-76
2023/06/22 09:17:54;;;;;;;1.17;0.90;;;;;;;21.98;90.74;100656.19;4973326;28;20696;-77
2023/06/22 09:20:19;;;;;;;0.30;0.30;;;;;;;22.22;89.43;100648.50;4973170;28;20198;-76
2023/06/22 09:22:45;;;;;;;1.77;1.70;;;;;;;22.60;89.39;100647.19;4973402;28;20189;-76
2023/06/22 09:25:10;;;;;;;3.37;3.17;;;;;;;22.24;86.25;100641.34;4973321;28;20181;-77
2023/06/22 09:27:36;;;;;;;0.80;0.80;;;;;;;22.15;87.18;100640.91;4973276;28;20191;-76
2023/06/22 09:30:02;;;;;;;1.60;1.60;;;;;;;22.36;86.72;100651.38;4972753;28;20224;-77
2023/06/22 09:32:28;;;;;;;0.10;0.10;;;;;;;22.41;86.86;100662.16;4973298;28;20178;-76
2023/06/22 09:34:53;;;;;;;1.83;1.73;;;;;;;22.31;87.17;100657.31;4973179;28;20185;-76
2023/06/22 09:37:18;;;;;;;3.87;2.20;;;;;;;22.10;87.50;100659.91;4973141;28;20206;-77
2023/06/22 09:39:44;;;;;;;0.00;0.00;;;;;;;22.15;88.07;100652.03;4973254;28;20182;-76
2023/06/22 09:42:09;;;;;;;0.57;0.57;;;;;;;22.33;88.84;100662.50;4973007;28;20212;-76
2023/06/22 09:44:34;;;;;;;0.43;0.43;;;;;;;22.50;88.91;100661.84;4971893;28;20255;-77
2023/06/22 09:47:00;;;;;;;0.47;0.47;;;;;;;22.50;87.06;100659.84;4973080;28;20646;-77
2023/06/22 09:49:25;;;;;;;1.43;1.40;;;;;;;22.73;87.21;100642.09;4972831;28;20185;-77
2023/06/22 09:51:52;;;;;;;0.63;0.63;;;;;;;22.74;86.61;100641.72;4972894;28;20236;-77
2023/06/22 09:54:17;;;;;;;0.20;0.20;;;;;;;22.73;86.74;100628.97;4973457;28;20182;-76
2023/06/22 09:56:43;;;;;;;2.70;2.50;;;;;;;23.04;86.15;100618.41;4972942;28;20186;-76
2023/06/22 09:59:08;;;;;;;3.80;3.50;;;;;;;22.91;85.06;100620.72;4971377;28;20271;-76
2023/06/22 10:01:33;;;;;;;1.63;1.40;;;;;;;23.08;84.03;100617.22;4972875;28;20198;-76
2023/06/22 10:03:59;;;;;;;2.77;2.57;;;;;;;23.20;84.83;100626.41;4973217;28;20182;-76
2023/06/22 10:06:25;;;;;;;0.87;0.73;;;;;;;23.40;83.84;100633.25;4971229;28;20197;-77
2023/06/22 10:08:51;;;;;;;0.83;0.83;;;;;;;23.58;83.49;100634.13;4972560;28;20191;-76
2023/06/22 10:11:16;;;;;;;13.17;2.63;;;;;;;23.83;84.01;100628.56;4971344;28;20236;-77
2023/06/22 10:13:42;;;;;;;1.80;1.70;;;;;;;23.61;81.48;100622.19;4972777;28;20186;-76
2023/06/22 10:16:07;;;;;;;0.50;0.50;;;;;;;23.56;80.93;100630.88;4973127;28;20194;-76
2023/06/22 10:18:32;;;;;;;2.93;2.73;;;;;;;23.52;82.12;100630.09;4972448;28;20216;-76
2023/06/22 10:20:58;;;;;;;0.77;0.77;;;;;;;23.71;83.63;100632.53;4972611;28;20201;-76
2023/06/22 10:23:23;;;;;;;1.50;1.17;;;;;;;23.85;82.44;100625.38;4972831;28;20265;-76
2023/06/22 10:25:49;;;;;;;0.67;0.67;;;;;;;23.63;81.63;100622.59;4972631;28;20276;-76
2023/06/22 10:28:15;;;;;;;1.57;1.57;;;;;;;23.57;81.94;100626.09;4972397;28;20181;-77
2023/06/22 10:30:41;;;;;;;2.07;1.87;;;;;;;23.42;83.01;100628.06;4972616;28;20202;-76
2023/06/22 10:33:07;;;;;;;1.43;1.33;;;;;;;23.40;83.49;100619.31;4968328;28;20198;-76
2023/06/22 10:35:32;;;;;;;4.60;4.30;;;;;;;23.33;83.81;100620.09;4968747;28;20182;-76
2023/06/22 10:37:58;;;;;;;3.33;3.13;;;;;;;23.33;83.79;100614.50;4972877;28;20214;-76
2023/06/22 10:40:23;;;;;;;1.17;1.17;;;;;;;23.59;84.68;100607.03;4972264;28;20210;-77
2023/06/22 10:42:50;;;;;;;2.60;2.43;;;;;;;23.56;83.09;100594.63;4985682;28;20213;-76
2023/06/22 10:45:15;;;;;;;6.20;3.97;;;;;;;23.49;82.34;100591.03;4972593;28;20636;-76
2023/06/22 10:47:42;;;;;;;3.23;2.93;;;;;;;23.51;82.55;100597.03;4972458;28;20254;-76
2023/06/22 10:50:07;;;;;;;0.13;0.13;;;;;;;23.60;82.64;100587.13;4972230;28;20651;-76
2023/06/22 10:52:33;;;;;;;1.50;1.17;;;;;;;23.81;83.12;100585.53;4975509;28;20190;-76
2023/06/22 10:54:58;;;;;;;1.23;1.23;;;;;;;23.75;82.47;100579.56;4975867;28;20264;-77
2023/06/22 10:57:23;;;;;;;0.37;0.37;;;;;;;23.84;82.42;100579.94;4974764;28;20212;-77
2023/06/22 10:59:49;;;;;;;0.80;0.80;;;;;;;23.81;82.21;100574.38;4975730;28;20617;-77
2023/06/22 11:02:14;;;;;;;0.20;0.20;;;;;;;23.94;82.81;100579.16;4975873;28;20209;-77
2023/06/22 11:04:40;;;;;;;1.27;1.27;;;;;;;24.26;82.48;100587.50;4975826;28;20185;-76
2023/06/22 11:07:05;;;;;;;0.20;0.20;;;;;;;24.50;81.75;100585.91;4976353;28;20260;-76
2023/06/22 11:09:31;;;;;;;4.13;3.70;;;;;;;24.65;81.12;100578.28;4975343;28;20186;-77
2023/06/22 11:11:58;;;;;;;3.27;1.03;;;;;;;25.11;81.11;100583.69;4975648;28;20205;-76
2023/06/22 11:14:24;;;;;;;0.20;0.20;;;;;;;25.40;78.24;100570.34;4975780;28;20273;-77
2023/06/22 11:16:49;;;;;;;5.80;3.63;;;;;;;25.22;76.60;100564.06;4974358;28;20622;-77